Portada
METAR-TAF:

METAR-TAF

Aeropuertos :

Aeropuerto de Reus

Reus, España

latitud: 41-09N, longitud: 001-10E, altitud: 71 m

Observación

El informe se hizo hace 26 minutos, a las 21:30 UTC
Viento 4 kt del norte
Temperatura 14°C
Humedad 67%
Presión 1017 hPa
Visibilidad 10 km o más
sin nubes por debajo de 1500 m y sin presencia de cumulonimbus.

METAR: LERS 162130Z 36004KT CAVOK 14/08 Q1017

Hora: 23:56 (21:56 UTC)

Pronóstico

El informe se hizo hace 1 hora y 56 minutos, a las 20:00 UTC
Pronóstico válido del 16 a las 21 UTC al 17 a las 21 UTC
Viento 7 kt del oeste-suroeste
Visibilidad 10 km o más
Escasas nubes a una altura de 3000 ft
Evolucionando progresivamente
del 16 a las 21 UTC al 16 a las 22 UTC
Viento 5 kt del norte
Evolucionando progresivamente
del 17 a las 10 UTC al 17 a las 12 UTC
Viento 7 kt del sur

TAF: LERS 162000Z 1621/1721 25007KT 9999 FEW030 TX25/1713Z TN13/1706Z BECMG 1621/1622 36005KT BECMG 1710/1712 18007KT

Observaciones y pronósticos meteorológicos de más de 4000 aeropuertos (mensajes METAR y TAF).

Los puntos amarillos y rojos representan las estaciones disponibles.

Ponga el ratón en el punto deseado para ver el nombre de la estación.

Haga clic para ver las observaciones y los pronósticos meteorológicos.

Para cambiar el mapa : haga clic en los botones verdes con una cruz de color negro para hacer un zoom, en el botón verde con un guión para alejar o en las flechas verdes para mapas adyacentes.


METAR-TAF: